sensor_id;sensor_type;location;lat;lon;timestamp;pressure;altitude;pressure_sealevel;temperature;humidity
47082;BME280;33066;49.296;14.470;2022-11-28T00:00:45;97302.95;;;6.98;37.04
47082;BME280;33066;49.296;14.470;2022-11-28T00:03:11;97298.06;;;6.81;36.79
47082;BME280;33066;49.296;14.470;2022-11-28T00:05:37;97293.22;;;6.68;36.45
47082;BME280;33066;49.296;14.470;2022-11-28T00:08:02;97286.85;;;6.55;36.31
47082;BME280;33066;49.296;14.470;2022-11-28T00:10:28;97282.62;;;6.78;36.23
47082;BME280;33066;49.296;14.470;2022-11-28T00:12:54;97277.40;;;7.01;36.31
47082;BME280;33066;49.296;14.470;2022-11-28T00:15:19;97270.07;;;7.09;36.21
47082;BME280;33066;49.296;14.470;2022-11-28T00:17:46;97267.61;;;6.91;36.30
47082;BME280;33066;49.296;14.470;2022-11-28T00:20:10;97260.66;;;6.84;36.21
47082;BME280;33066;49.296;14.470;2022-11-28T00:22:36;97262.14;;;6.77;36.25
47082;BME280;33066;49.296;14.470;2022-11-28T00:25:01;97261.37;;;7.04;36.48
47082;BME280;33066;49.296;14.470;2022-11-28T00:27:27;97257.19;;;6.79;36.40
47082;BME280;33066;49.296;14.470;2022-11-28T00:29:54;97251.61;;;7.08;36.58
47082;BME280;33066;49.296;14.470;2022-11-28T00:32:17;97247.78;;;6.96;36.67
47082;BME280;33066;49.296;14.470;2022-11-28T00:34:43;97247.44;;;7.09;36.61
47082;BME280;33066;49.296;14.470;2022-11-28T00:37:09;97242.47;;;6.95;36.71
47082;BME280;33066;49.296;14.470;2022-11-28T00:39:35;97240.59;;;7.19;36.95
47082;BME280;33066;49.296;14.470;2022-11-28T00:42:00;97240.47;;;7.07;36.92
47082;BME280;33066;49.296;14.470;2022-11-28T00:44:25;97240.38;;;7.30;36.80
47082;BME280;33066;49.296;14.470;2022-11-28T00:46:51;97238.65;;;7.16;36.86
47082;BME280;33066;49.296;14.470;2022-11-28T00:49:16;97233.90;;;7.26;36.59
47082;BME280;33066;49.296;14.470;2022-11-28T00:51:42;97235.47;;;7.32;36.47
47082;BME280;33066;49.296;14.470;2022-11-28T00:54:08;97237.20;;;7.31;36.39
47082;BME280;33066;49.296;14.470;2022-11-28T00:56:35;97241.31;;;6.93;36.38
47082;BME280;33066;49.296;14.470;2022-11-28T00:58:58;97240.35;;;7.11;36.65
47082;BME280;33066;49.296;14.470;2022-11-28T01:01:25;97235.31;;;7.38;36.63
47082;BME280;33066;49.296;14.470;2022-11-28T01:03:51;97233.47;;;7.16;36.90
47082;BME280;33066;49.296;14.470;2022-11-28T01:06:20;97231.48;;;7.30;36.96
47082;BME280;33066;49.296;14.470;2022-11-28T01:08:40;97234.21;;;7.40;36.79
47082;BME280;33066;49.296;14.470;2022-11-28T01:11:11;97235.28;;;7.44;36.54
47082;BME280;33066;49.296;14.470;2022-11-28T01:13:31;97233.02;;;7.12;36.49
47082;BME280;33066;49.296;14.470;2022-11-28T01:15:56;97236.75;;;7.41;36.74
47082;BME280;33066;49.296;14.470;2022-11-28T01:18:21;97235.16;;;7.43;36.75
47082;BME280;33066;49.296;14.470;2022-11-28T01:20:47;97232.06;;;7.33;36.83
47082;BME280;33066;49.296;14.470;2022-11-28T01:23:12;97225.27;;;7.36;36.95
47082;BME280;33066;49.296;14.470;2022-11-28T01:25:37;97222.73;;;7.41;37.13
47082;BME280;33066;49.296;14.470;2022-11-28T01:28:03;97223.09;;;7.65;37.38
47082;BME280;33066;49.296;14.470;2022-11-28T01:30:28;97224.11;;;7.75;37.45
47082;BME280;33066;49.296;14.470;2022-11-28T01:32:53;97222.21;;;7.28;37.55
47082;BME280;33066;49.296;14.470;2022-11-28T01:35:19;97217.53;;;7.60;37.50
47082;BME280;33066;49.296;14.470;2022-11-28T01:37:45;97218.39;;;7.71;37.75
47082;BME280;33066;49.296;14.470;2022-11-28T01:40:12;97214.90;;;7.77;37.72
47082;BME280;33066;49.296;14.470;2022-11-28T01:42:35;97213.87;;;7.85;37.88
47082;BME280;33066;49.296;14.470;2022-11-28T01:45:09;97209.34;;;8.06;38.15
47082;BME280;33066;49.296;14.470;2022-11-28T01:47:27;97204.44;;;7.83;38.31
47082;BME280;33066;49.296;14.470;2022-11-28T01:49:51;97198.44;;;7.59;38.32
47082;BME280;33066;49.296;14.470;2022-11-28T01:52:18;97196.69;;;7.76;38.32
47082;BME280;33066;49.296;14.470;2022-11-28T01:54:45;97192.58;;;7.51;38.75
47082;BME280;33066;49.296;14.470;2022-11-28T01:57:14;97189.58;;;7.35;39.22
47082;BME280;33066;49.296;14.470;2022-11-28T01:59:36;97191.10;;;7.15;39.63
47082;BME280;33066;49.296;14.470;2022-11-28T02:01:59;97188.52;;;7.49;39.99
47082;BME280;33066;49.296;14.470;2022-11-28T02:04:26;97187.17;;;7.17;40.23
47082;BME280;33066;49.296;14.470;2022-11-28T02:06:51;97181.77;;;7.15;40.45
47082;BME280;33066;49.296;14.470;2022-11-28T02:09:16;97179.52;;;7.05;40.88
47082;BME280;33066;49.296;14.470;2022-11-28T02:11:58;97176.09;;;6.93;41.32
47082;BME280;33066;49.296;14.470;2022-11-28T02:14:14;97172.93;;;7.25;41.17
47082;BME280;33066;49.296;14.470;2022-11-28T02:16:44;97173.06;;;7.40;41.14
47082;BME280;33066;49.296;14.470;2022-11-28T02:19:09;97171.87;;;7.12;40.98
47082;BME280;33066;49.296;14.470;2022-11-28T02:21:35;97166.67;;;7.20;40.71
47082;BME280;33066;49.296;14.470;2022-11-28T02:24:01;97165.72;;;7.79;40.63
47082;BME280;33066;49.296;14.470;2022-11-28T02:26:34;97162.97;;;7.60;40.90
47082;BME280;33066;49.296;14.470;2022-11-28T02:28:52;97165.73;;;7.54;40.85
47082;BME280;33066;49.296;14.470;2022-11-28T02:31:15;97167.20;;;7.38;40.53
47082;BME280;33066;49.296;14.470;2022-11-28T02:33:31;97169.27;;;7.36;40.67
47082;BME280;33066;49.296;14.470;2022-11-28T02:36:02;97170.65;;;7.46;40.76
47082;BME280;33066;49.296;14.470;2022-11-28T02:38:28;97168.40;;;7.53;40.46
47082;BME280;33066;49.296;14.470;2022-11-28T02:40:54;97166.21;;;7.93;40.46
47082;BME280;33066;49.296;14.470;2022-11-28T02:43:19;97162.87;;;7.72;40.62
47082;BME280;33066;49.296;14.470;2022-11-28T02:45:45;97150.66;;;7.71;40.36
47082;BME280;33066;49.296;14.470;2022-11-28T02:48:03;97148.83;;;7.73;40.52
47082;BME280;33066;49.296;14.470;2022-11-28T02:50:31;97143.45;;;7.72;40.50
47082;BME280;33066;49.296;14.470;2022-11-28T02:52:55;97138.72;;;7.76;40.38
47082;BME280;33066;49.296;14.470;2022-11-28T02:55:18;97137.57;;;7.57;40.26
47082;BME280;33066;49.296;14.470;2022-11-28T02:57:48;97140.57;;;7.54;40.42
47082;BME280;33066;49.296;14.470;2022-11-28T03:00:24;97141.13;;;7.96;40.47
47082;BME280;33066;49.296;14.470;2022-11-28T03:02:34;97136.23;;;7.88;40.06
47082;BME280;33066;49.296;14.470;2022-11-28T03:05:06;97130.76;;;8.19;39.90
47082;BME280;33066;49.296;14.470;2022-11-28T03:07:48;97131.51;;;7.96;39.78
47082;BME280;33066;49.296;14.470;2022-11-28T03:10:03;97132.87;;;8.15;39.91
47082;BME280;33066;49.296;14.470;2022-11-28T03:12:27;97134.29;;;8.15;39.86
47082;BME280;33066;49.296;14.470;2022-11-28T03:14:49;97131.43;;;8.17;39.82
47082;BME280;33066;49.296;14.470;2022-11-28T03:17:14;97131.21;;;7.88;39.92
47082;BME280;33066;49.296;14.470;2022-11-28T03:19:35;97129.52;;;7.80;39.97
47082;BME280;33066;49.296;14.470;2022-11-28T03:22:04;97130.37;;;7.84;40.03
47082;BME280;33066;49.296;14.470;2022-11-28T03:24:26;97127.57;;;8.12;39.96
47082;BME280;33066;49.296;14.470;2022-11-28T03:26:54;97123.47;;;7.90;40.01
47082;BME280;33066;49.296;14.470;2022-11-28T03:29:19;97121.31;;;8.16;39.99
47082;BME280;33066;49.296;14.470;2022-11-28T03:31:43;97120.25;;;8.20;39.93
47082;BME280;33066;49.296;14.470;2022-11-28T03:34:07;97122.15;;;8.23;39.88
47082;BME280;33066;49.296;14.470;2022-11-28T03:36:31;97122.91;;;7.80;39.95
47082;BME280;33066;49.296;14.470;2022-11-28T03:39:00;97122.54;;;8.41;39.77
47082;BME280;33066;49.296;14.470;2022-11-28T03:41:26;97123.70;;;8.43;39.73
47082;BME280;33066;49.296;14.470;2022-11-28T03:43:50;97123.76;;;8.19;39.79
47082;BME280;33066;49.296;14.470;2022-11-28T03:46:17;97122.66;;;7.94;39.76
47082;BME280;33066;49.296;14.470;2022-11-28T03:48:39;97123.01;;;8.16;39.83
47082;BME280;33066;49.296;14.470;2022-11-28T03:51:06;97120.24;;;8.07;39.71
47082;BME280;33066;49.296;14.470;2022-11-28T03:53:34;97116.36;;;8.40;39.59
47082;BME280;33066;49.296;14.470;2022-11-28T03:55:59;97116.82;;;8.24;39.54
47082;BME280;33066;49.296;14.470;2022-11-28T03:58:23;97113.37;;;8.33;39.38
47082;BME280;33066;49.296;14.470;2022-11-28T04:00:48;97109.61;;;8.26;39.38
47082;BME280;33066;49.296;14.470;2022-11-28T04:03:16;97107.13;;;8.46;39.46
47082;BME280;33066;49.296;14.470;2022-11-28T04:05:41;97101.41;;;8.19;39.48
47082;BME280;33066;49.296;14.470;2022-11-28T04:08:03;97097.17;;;8.20;39.63
47082;BME280;33066;49.296;14.470;2022-11-28T04:13:08;97087.61;;;8.54;39.29
47082;BME280;33066;49.296;14.470;2022-11-28T04:15:32;97086.40;;;8.44;39.35
47082;BME280;33066;49.296;14.470;2022-11-28T04:17:56;97082.53;;;8.32;39.50
47082;BME280;33066;49.296;14.470;2022-11-28T04:20:26;97078.80;;;8.46;39.50
47082;BME280;33066;49.296;14.470;2022-11-28T04:22:46;97083.20;;;8.35;39.74
47082;BME280;33066;49.296;14.470;2022-11-28T04:25:11;97082.12;;;8.33;39.87
47082;BME280;33066;49.296;14.470;2022-11-28T04:27:37;97080.81;;;8.02;39.88
47082;BME280;33066;49.296;14.470;2022-11-28T04:30:01;97077.57;;;8.50;39.93
47082;BME280;33066;49.296;14.470;2022-11-28T04:32:26;97078.19;;;8.54;39.93
47082;BME280;33066;49.296;14.470;2022-11-28T04:34:55;97079.89;;;8.20;39.79
47082;BME280;33066;49.296;14.470;2022-11-28T04:37:16;97078.35;;;8.28;39.73
47082;BME280;33066;49.296;14.470;2022-11-28T04:39:43;97080.97;;;8.42;39.49
47082;BME280;33066;49.296;14.470;2022-11-28T04:42:12;97081.50;;;8.76;39.40
47082;BME280;33066;49.296;14.470;2022-11-28T04:44:35;97081.08;;;8.61;39.23
47082;BME280;33066;49.296;14.470;2022-11-28T04:46:58;97082.19;;;8.62;39.26
47082;BME280;33066;49.296;14.470;2022-11-28T04:49:25;97083.06;;;8.71;39.14
47082;BME280;33066;49.296;14.470;2022-11-28T04:51:55;97078.80;;;8.79;38.98
47082;BME280;33066;49.296;14.470;2022-11-28T04:54:21;97076.60;;;8.87;38.91
47082;BME280;33066;49.296;14.470;2022-11-28T04:56:45;97077.05;;;8.84;38.94
47082;BME280;33066;49.296;14.470;2022-11-28T04:59:05;97075.44;;;8.86;38.97
47082;BME280;33066;49.296;14.470;2022-11-28T05:01:32;97074.30;;;8.86;39.32
47082;BME280;33066;49.296;14.470;2022-11-28T05:03:56;97068.01;;;8.83;39.91
47082;BME280;33066;49.296;14.470;2022-11-28T05:06:24;97064.95;;;8.85;39.85
47082;BME280;33066;49.296;14.470;2022-11-28T05:08:47;97055.85;;;8.50;39.67
47082;BME280;33066;49.296;14.470;2022-11-28T05:11:13;97048.08;;;8.65;39.86
47082;BME280;33066;49.296;14.470;2022-11-28T05:13:38;97044.36;;;8.62;40.42
47082;BME280;33066;49.296;14.470;2022-11-28T05:16:04;97041.90;;;8.54;40.00
47082;BME280;33066;49.296;14.470;2022-11-28T05:18:29;97039.32;;;8.48;40.13
47082;BME280;33066;49.296;14.470;2022-11-28T05:20:54;97036.39;;;8.49;39.93
47082;BME280;33066;49.296;14.470;2022-11-28T05:23:19;97034.60;;;8.73;40.00
47082;BME280;33066;49.296;14.470;2022-11-28T05:25:44;97028.02;;;8.44;40.15
47082;BME280;33066;49.296;14.470;2022-11-28T05:28:09;97026.55;;;8.43;40.13
47082;BME280;33066;49.296;14.470;2022-11-28T05:30:35;97027.95;;;8.40;39.99
47082;BME280;33066;49.296;14.470;2022-11-28T05:33:00;97023.43;;;8.64;40.22
47082;BME280;33066;49.296;14.470;2022-11-28T05:35:25;97017.30;;;8.68;40.19
47082;BME280;33066;49.296;14.470;2022-11-28T05:37:51;97014.77;;;8.44;39.95
47082;BME280;33066;49.296;14.470;2022-11-28T05:40:17;97011.05;;;8.43;40.23
47082;BME280;33066;49.296;14.470;2022-11-28T05:42:42;97010.14;;;8.90;40.29
47082;BME280;33066;49.296;14.470;2022-11-28T05:45:08;97006.10;;;8.36;40.07
47082;BME280;33066;49.296;14.470;2022-11-28T05:47:33;97006.16;;;8.81;40.33
47082;BME280;33066;49.296;14.470;2022-11-28T05:49:59;97006.45;;;8.06;40.40
47082;BME280;33066;49.296;14.470;2022-11-28T05:52:23;97005.58;;;8.18;40.50
47082;BME280;33066;49.296;14.470;2022-11-28T05:54:49;97011.49;;;8.41;40.70
47082;BME280;33066;49.296;14.470;2022-11-28T05:57:15;97015.48;;;8.35;40.82
47082;BME280;33066;49.296;14.470;2022-11-28T05:59:40;97014.41;;;8.25;40.59
47082;BME280;33066;49.296;14.470;2022-11-28T06:02:06;97014.90;;;8.05;40.67
47082;BME280;33066;49.296;14.470;2022-11-28T06:04:33;97015.56;;;8.21;40.13
47082;BME280;33066;49.296;14.470;2022-11-28T06:06:57;97018.08;;;8.34;39.89
47082;BME280;33066;49.296;14.470;2022-11-28T06:09:23;97019.63;;;8.57;39.87
47082;BME280;33066;49.296;14.470;2022-11-28T06:11:47;97019.91;;;8.32;39.84
47082;BME280;33066;49.296;14.470;2022-11-28T06:14:12;97021.75;;;8.62;39.90
47082;BME280;33066;49.296;14.470;2022-11-28T06:16:37;97018.44;;;8.34;39.68
47082;BME280;33066;49.296;14.470;2022-11-28T06:19:04;97018.78;;;8.59;39.74
47082;BME280;33066;49.296;14.470;2022-11-28T06:21:29;97021.78;;;8.40;39.82
47082;BME280;33066;49.296;14.470;2022-11-28T06:23:55;97021.52;;;8.49;39.68
47082;BME280;33066;49.296;14.470;2022-11-28T06:26:23;97020.03;;;8.45;39.69
47082;BME280;33066;49.296;14.470;2022-11-28T06:28:44;97019.12;;;8.15;39.70
47082;BME280;33066;49.296;14.470;2022-11-28T06:31:11;97020.37;;;8.26;39.82
47082;BME280;33066;49.296;14.470;2022-11-28T06:33:36;97021.37;;;8.22;39.83
47082;BME280;33066;49.296;14.470;2022-11-28T06:36:03;97019.94;;;8.42;39.92
47082;BME280;33066;49.296;14.470;2022-11-28T06:38:27;97019.74;;;8.19;40.01
47082;BME280;33066;49.296;14.470;2022-11-28T06:40:56;97019.05;;;8.72;39.88
47082;BME280;33066;49.296;14.470;2022-11-28T06:43:18;97017.46;;;8.42;39.86
47082;BME280;33066;49.296;14.470;2022-11-28T06:45:43;97021.77;;;8.15;40.08
47082;BME280;33066;49.296;14.470;2022-11-28T06:48:08;97023.05;;;8.27;40.06
47082;BME280;33066;49.296;14.470;2022-11-28T06:50:35;97024.26;;;8.18;40.20
47082;BME280;33066;49.296;14.470;2022-11-28T06:52:59;97025.90;;;8.25;40.31
47082;BME280;33066;49.296;14.470;2022-11-28T06:55:24;97023.15;;;8.02;40.21
47082;BME280;33066;49.296;14.470;2022-11-28T06:57:51;97024.94;;;7.99;40.22
47082;BME280;33066;49.296;14.470;2022-11-28T07:00:16;97026.28;;;7.95;40.33
47082;BME280;33066;49.296;14.470;2022-11-28T07:02:41;97028.98;;;8.31;40.59
47082;BME280;33066;49.296;14.470;2022-11-28T07:05:07;97029.52;;;8.29;40.53
47082;BME280;33066;49.296;14.470;2022-11-28T07:07:32;97028.41;;;8.35;40.68
47082;BME280;33066;49.296;14.470;2022-11-28T07:09:58;97031.43;;;8.25;40.63
47082;BME280;33066;49.296;14.470;2022-11-28T07:12:24;97030.96;;;8.08;40.57
47082;BME280;33066;49.296;14.470;2022-11-28T07:14:49;97033.77;;;8.26;40.71
47082;BME280;33066;49.296;14.470;2022-11-28T07:17:15;97031.75;;;7.84;40.42
47082;BME280;33066;49.296;14.470;2022-11-28T07:19:40;97031.87;;;8.26;40.55
47082;BME280;33066;49.296;14.470;2022-11-28T07:22:06;97027.67;;;8.08;40.42
47082;BME280;33066;49.296;14.470;2022-11-28T07:24:32;97026.66;;;8.13;40.45
47082;BME280;33066;49.296;14.470;2022-11-28T07:26:57;97029.71;;;8.47;40.20
47082;BME280;33066;49.296;14.470;2022-11-28T07:29:22;97025.99;;;8.53;40.30
47082;BME280;33066;49.296;14.470;2022-11-28T07:31:47;97021.95;;;8.10;40.02
47082;BME280;33066;49.296;14.470;2022-11-28T07:34:13;97023.80;;;8.06;40.21
47082;BME280;33066;49.296;14.470;2022-11-28T07:36:39;97021.15;;;8.09;40.48
47082;BME280;33066;49.296;14.470;2022-11-28T07:39:06;97018.11;;;8.07;40.73
47082;BME280;33066;49.296;14.470;2022-11-28T07:41:30;97008.79;;;8.16;40.35
47082;BME280;33066;49.296;14.470;2022-11-28T07:43:56;97008.14;;;8.02;40.43
47082;BME280;33066;49.296;14.470;2022-11-28T07:46:21;97013.59;;;8.22;40.50
47082;BME280;33066;49.296;14.470;2022-11-28T07:48:47;97016.34;;;8.24;40.19
47082;BME280;33066;49.296;14.470;2022-11-28T07:51:12;97017.08;;;8.24;40.47
47082;BME280;33066;49.296;14.470;2022-11-28T07:53:36;97022.30;;;8.24;40.66
47082;BME280;33066;49.296;14.470;2022-11-28T07:56:02;97024.69;;;7.95;40.31
47082;BME280;33066;49.296;14.470;2022-11-28T07:58:28;97029.71;;;8.40;40.31
47082;BME280;33066;49.296;14.470;2022-11-28T08:00:53;97027.26;;;8.26;40.26
47082;BME280;33066;49.296;14.470;2022-11-28T08:03:18;97025.23;;;8.16;40.00
47082;BME280;33066;49.296;14.470;2022-11-28T08:05:44;97026.25;;;8.13;39.87
47082;BME280;33066;49.296;14.470;2022-11-28T08:08:09;97029.07;;;8.10;39.83
47082;BME280;33066;49.296;14.470;2022-11-28T08:10:34;97031.47;;;8.64;39.97
47082;BME280;33066;49.296;14.470;2022-11-28T08:12:59;97028.52;;;8.38;39.76
47082;BME280;33066;49.296;14.470;2022-11-28T08:15:24;97026.07;;;8.37;39.66
47082;BME280;33066;49.296;14.470;2022-11-28T08:17:50;97021.69;;;8.52;39.53
47082;BME280;33066;49.296;14.470;2022-11-28T08:20:16;97018.16;;;8.84;39.32
47082;BME280;33066;49.296;14.470;2022-11-28T08:22:41;97016.69;;;8.64;39.27
47082;BME280;33066;49.296;14.470;2022-11-28T08:25:07;97012.48;;;8.97;39.19
47082;BME280;33066;49.296;14.470;2022-11-28T08:27:32;97009.75;;;8.78;39.16
47082;BME280;33066;49.296;14.470;2022-11-28T08:29:57;97003.85;;;8.81;39.27
47082;BME280;33066;49.296;14.470;2022-11-28T08:32:24;96999.77;;;8.93;39.19
47082;BME280;33066;49.296;14.470;2022-11-28T08:34:48;97000.06;;;9.02;39.18
47082;BME280;33066;49.296;14.470;2022-11-28T08:37:13;96997.92;;;9.14;38.95
47082;BME280;33066;49.296;14.470;2022-11-28T08:39:39;96992.29;;;8.87;39.00
47082;BME280;33066;49.296;14.470;2022-11-28T08:42:05;96990.37;;;9.19;38.96
47082;BME280;33066;49.296;14.470;2022-11-28T08:44:33;96987.57;;;8.98;39.00
47082;BME280;33066;49.296;14.470;2022-11-28T08:46:57;96985.79;;;9.22;39.04
47082;BME280;33066;49.296;14.470;2022-11-28T08:49:22;96981.53;;;8.92;39.20
47082;BME280;33066;49.296;14.470;2022-11-28T08:51:48;96980.24;;;8.83;39.17
47082;BME280;33066;49.296;14.470;2022-11-28T08:54:14;96981.88;;;9.09;39.19
47082;BME280;33066;49.296;14.470;2022-11-28T08:56:39;96978.38;;;9.30;39.17
47082;BME280;33066;49.296;14.470;2022-11-28T08:59:04;96975.97;;;8.78;39.26
47082;BME280;33066;49.296;14.470;2022-11-28T09:01:29;96978.64;;;9.08;39.17
47082;BME280;33066;49.296;14.470;2022-11-28T09:03:56;96980.35;;;9.17;39.22
47082;BME280;33066;49.296;14.470;2022-11-28T09:06:21;96982.89;;;9.16;39.09
47082;BME280;33066;49.296;14.470;2022-11-28T09:08:45;96979.22;;;8.99;39.09
47082;BME280;33066;49.296;14.470;2022-11-28T09:11:12;96974.95;;;8.99;39.23
47082;BME280;33066;49.296;14.470;2022-11-28T09:13:37;96975.35;;;8.90;39.25
47082;BME280;33066;49.296;14.470;2022-11-28T09:16:02;96973.49;;;9.26;39.31
47082;BME280;33066;49.296;14.470;2022-11-28T09:18:26;96973.59;;;9.06;39.37
47082;BME280;33066;49.296;14.470;2022-11-28T09:20:57;96973.89;;;9.10;39.26
47082;BME280;33066;49.296;14.470;2022-11-28T09:23:18;96973.59;;;9.20;39.11
47082;BME280;33066;49.296;14.470;2022-11-28T09:25:44;96974.25;;;9.16;39.26
47082;BME280;33066;49.296;14.470;2022-11-28T09:28:09;96976.48;;;9.09;39.32
47082;BME280;33066;49.296;14.470;2022-11-28T09:30:35;96971.45;;;9.17;39.38
47082;BME280;33066;49.296;14.470;2022-11-28T09:33:00;96972.12;;;9.25;39.31
47082;BME280;33066;49.296;14.470;2022-11-28T09:35:25;96967.35;;;9.38;39.27
47082;BME280;33066;49.296;14.470;2022-11-28T09:37:50;96964.80;;;9.40;39.07
47082;BME280;33066;49.296;14.470;2022-11-28T09:40:20;96961.77;;;9.11;39.08
47082;BME280;33066;49.296;14.470;2022-11-28T09:42:42;96957.25;;;9.38;39.05
47082;BME280;33066;49.296;14.470;2022-11-28T09:45:12;96952.32;;;9.48;38.93
47082;BME280;33066;49.296;14.470;2022-11-28T09:47:33;96946.75;;;9.47;38.96
47082;BME280;33066;49.296;14.470;2022-11-28T09:49:59;96943.56;;;9.50;39.05
47082;BME280;33066;49.296;14.470;2022-11-28T09:52:30;96941.91;;;9.08;39.11
47082;BME280;33066;49.296;14.470;2022-11-28T09:54:51;96935.53;;;9.57;39.06
47082;BME280;33066;49.296;14.470;2022-11-28T09:57:17;96935.60;;;9.36;39.01
47082;BME280;33066;49.296;14.470;2022-11-28T09:59:39;96928.82;;;9.30;39.14
47082;BME280;33066;49.296;14.470;2022-11-28T10:04:36;96920.48;;;9.19;39.31
47082;BME280;33066;49.296;14.470;2022-11-28T10:06:59;96916.43;;;9.70;39.30
47082;BME280;33066;49.296;14.470;2022-11-28T10:09:31;96907.95;;;9.25;39.27
47082;BME280;33066;49.296;14.470;2022-11-28T10:11:59;96899.07;;;9.30;39.18
47082;BME280;33066;49.296;14.470;2022-11-28T10:14:26;96894.04;;;9.58;39.59
47082;BME280;33066;49.296;14.470;2022-11-28T10:16:44;96893.74;;;9.39;40.05
47082;BME280;33066;49.296;14.470;2022-11-28T10:19:08;96892.38;;;9.40;39.78
47082;BME280;33066;49.296;14.470;2022-11-28T10:21:32;96894.83;;;9.66;39.82
47082;BME280;33066;49.296;14.470;2022-11-28T10:23:57;96897.88;;;9.34;39.85
47082;BME280;33066;49.296;14.470;2022-11-28T10:26:26;96904.10;;;9.54;39.89
47082;BME280;33066;49.296;14.470;2022-11-28T10:28:45;96904.43;;;9.38;40.01
47082;BME280;33066;49.296;14.470;2022-11-28T10:31:13;96894.71;;;9.44;39.50
47082;BME280;33066;49.296;14.470;2022-11-28T10:33:38;96887.63;;;9.42;39.71
47082;BME280;33066;49.296;14.470;2022-11-28T10:36:00;96887.48;;;9.21;39.97
47082;BME280;33066;49.296;14.470;2022-11-28T10:38:25;96887.07;;;9.19;39.95
47082;BME280;33066;49.296;14.470;2022-11-28T10:40:54;96885.55;;;9.00;39.97
47082;BME280;33066;49.296;14.470;2022-11-28T10:43:33;96884.61;;;9.18;40.14
47082;BME280;33066;49.296;14.470;2022-11-28T10:45:48;96881.08;;;8.89;40.13
47082;BME280;33066;49.296;14.470;2022-11-28T10:48:20;96882.19;;;9.36;39.93
47082;BME280;33066;49.296;14.470;2022-11-28T10:50:38;96883.94;;;9.51;40.07
47082;BME280;33066;49.296;14.470;2022-11-28T10:53:01;96889.46;;;9.63;39.96
47082;BME280;33066;49.296;14.470;2022-11-28T10:55:29;96883.08;;;9.26;39.63
47082;BME280;33066;49.296;14.470;2022-11-28T10:57:54;96881.35;;;9.58;39.64
47082;BME280;33066;49.296;14.470;2022-11-28T11:00:14;96876.50;;;9.56;39.62
47082;BME280;33066;49.296;14.470;2022-11-28T11:02:43;96875.98;;;9.35;39.38
47082;BME280;33066;49.296;14.470;2022-11-28T11:05:05;96875.59;;;9.23;39.71
47082;BME280;33066;49.296;14.470;2022-11-28T11:07:31;96875.74;;;9.21;39.78
47082;BME280;33066;49.296;14.470;2022-11-28T11:09:54;96877.87;;;9.13;39.76
47082;BME280;33066;49.296;14.470;2022-11-28T11:12:23;96876.00;;;9.09;39.76
47082;BME280;33066;49.296;14.470;2022-11-28T11:14:45;96877.71;;;9.06;39.56
47082;BME280;33066;49.296;14.470;2022-11-28T11:17:27;96875.76;;;9.27;39.51
47082;BME280;33066;49.296;14.470;2022-11-28T11:19:38;96873.25;;;9.63;39.44
47082;BME280;33066;49.296;14.470;2022-11-28T11:22:05;96874.86;;;9.35;39.14
47082;BME280;33066;49.296;14.470;2022-11-28T11:24:27;96867.97;;;9.01;39.21
47082;BME280;33066;49.296;14.470;2022-11-28T11:26:53;96863.89;;;8.97;39.36
47082;BME280;33066;49.296;14.470;2022-11-28T11:29:21;96864.40;;;9.34;39.38
47082;BME280;33066;49.296;14.470;2022-11-28T11:31:51;96856.72;;;8.05;39.42
47082;BME280;33066;49.296;14.470;2022-11-28T11:34:16;96857.11;;;9.69;38.43
47082;BME280;33066;49.296;14.470;2022-11-28T11:36:38;96856.28;;;9.36;38.65
47082;BME280;33066;49.296;14.470;2022-11-28T11:39:14;96853.73;;;9.50;38.87
47082;BME280;33066;49.296;14.470;2022-11-28T11:41:29;96855.54;;;9.48;39.00
47082;BME280;33066;49.296;14.470;2022-11-28T11:43:53;96863.08;;;9.28;39.23
47082;BME280;33066;49.296;14.470;2022-11-28T11:46:18;96863.35;;;9.23;39.14
47082;BME280;33066;49.296;14.470;2022-11-28T11:48:46;96858.35;;;9.76;39.02
47082;BME280;33066;49.296;14.470;2022-11-28T11:51:21;96856.18;;;9.50;39.07
47082;BME280;33066;49.296;14.470;2022-11-28T11:53:35;96854.81;;;9.52;39.04
47082;BME280;33066;49.296;14.470;2022-11-28T11:56:02;96860.70;;;9.32;39.35
47082;BME280;33066;49.296;14.470;2022-11-28T11:58:29;96861.11;;;9.09;39.46
47082;BME280;33066;49.296;14.470;2022-11-28T12:00:56;96864.31;;;9.10;39.58
47082;BME280;33066;49.296;14.470;2022-11-28T12:03:24;96869.59;;;9.13;40.10
47082;BME280;33066;49.296;14.470;2022-11-28T12:05:48;96874.98;;;9.32;40.21
47082;BME280;33066;49.296;14.470;2022-11-28T12:08:11;96875.52;;;9.66;39.91
47082;BME280;33066;49.296;14.470;2022-11-28T12:10:36;96872.67;;;9.68;39.70
47082;BME280;33066;49.296;14.470;2022-11-28T12:12:58;96875.53;;;9.60;39.21
47082;BME280;33066;49.296;14.470;2022-11-28T12:15:30;96874.65;;;9.33;39.46
47082;BME280;33066;49.296;14.470;2022-11-28T12:18:01;96875.29;;;9.35;39.36
47082;BME280;33066;49.296;14.470;2022-11-28T12:20:29;96875.64;;;9.78;39.42
47082;BME280;33066;49.296;14.470;2022-11-28T12:22:45;96877.63;;;9.67;39.00
47082;BME280;33066;49.296;14.470;2022-11-28T12:25:11;96875.18;;;9.69;38.62
47082;BME280;33066;49.296;14.470;2022-11-28T12:27:45;96876.36;;;9.86;38.74
47082;BME280;33066;49.296;14.470;2022-11-28T12:30:08;96874.53;;;9.91;38.63
47082;BME280;33066;49.296;14.470;2022-11-28T12:32:34;96874.87;;;9.99;38.76
47082;BME280;33066;49.296;14.470;2022-11-28T12:35:00;96870.95;;;9.82;38.63
47082;BME280;33066;49.296;14.470;2022-11-28T12:37:20;96867.38;;;9.88;38.82
47082;BME280;33066;49.296;14.470;2022-11-28T12:39:46;96862.69;;;9.92;38.82
47082;BME280;33066;49.296;14.470;2022-11-28T12:42:17;96859.23;;;9.93;38.63
47082;BME280;33066;49.296;14.470;2022-11-28T12:44:38;96854.34;;;9.98;38.79
47082;BME280;33066;49.296;14.470;2022-11-28T12:46:59;96853.57;;;9.92;38.33
47082;BME280;33066;49.296;14.470;2022-11-28T12:49:20;96856.33;;;10.00;38.88
47082;BME280;33066;49.296;14.470;2022-11-28T12:51:55;96857.48;;;9.61;38.77
47082;BME280;33066;49.296;14.470;2022-11-28T12:54:30;96855.23;;;9.73;39.73